sensor_id;sensor_type;location;lat;lon;timestamp;pressure;altitude;pressure_sealevel;temperature;humidity
18533;BME280;9396;51.510;11.934;2023-03-14T00:00:57;98260.59;;;11.31;100.00
18533;BME280;9396;51.510;11.934;2023-03-14T00:03:24;98261.03;;;11.21;100.00
18533;BME280;9396;51.510;11.934;2023-03-14T00:05:51;98254.47;;;11.24;100.00
18533;BME280;9396;51.510;11.934;2023-03-14T00:08:17;98257.75;;;11.26;100.00
18533;BME280;9396;51.510;11.934;2023-03-14T00:10:47;98260.41;;;11.26;100.00
18533;BME280;9396;51.510;11.934;2023-03-14T00:13:14;98254.25;;;11.32;100.00
18533;BME280;9396;51.510;11.934;2023-03-14T00:15:41;98253.63;;;11.30;100.00
18533;BME280;9396;51.510;11.934;2023-03-14T00:18:07;98245.44;;;11.31;100.00
18533;BME280;9396;51.510;11.934;2023-03-14T00:20:34;98242.59;;;11.20;100.00
18533;BME280;9396;51.510;11.934;2023-03-14T00:23:00;98239.31;;;11.24;100.00
18533;BME280;9396;51.510;11.934;2023-03-14T00:25:27;98242.59;;;11.26;100.00
18533;BME280;9396;51.510;11.934;2023-03-14T00:27:55;98238.09;;;11.20;100.00
18533;BME280;9396;51.510;11.934;2023-03-14T00:30:22;98240.34;;;11.23;100.00
18533;BME280;9396;51.510;11.934;2023-03-14T00:32:49;98239.31;;;11.24;100.00
18533;BME280;9396;51.510;11.934;2023-03-14T00:35:16;98255.50;;;11.23;100.00
18533;BME280;9396;51.510;11.934;2023-03-14T00:37:42;98266.75;;;11.25;100.00
18533;BME280;9396;51.510;11.934;2023-03-14T00:40:10;98276.19;;;11.21;100.00
18533;BME280;9396;51.510;11.934;2023-03-14T00:42:36;98287.44;;;11.23;100.00
18533;BME280;9396;51.510;11.934;2023-03-14T00:45:05;98274.94;;;11.23;100.00
18533;BME280;9396;51.510;11.934;2023-03-14T00:47:34;98278.25;;;11.19;100.00
18533;BME280;9396;51.510;11.934;2023-03-14T00:50:00;98279.84;;;11.20;100.00
18533;BME280;9396;51.510;11.934;2023-03-14T00:52:27;98291.31;;;11.20;100.00
18533;BME280;9396;51.510;11.934;2023-03-14T00:54:54;98283.41;;;11.01;100.00
18533;BME280;9396;51.510;11.934;2023-03-14T00:57:20;98281.59;;;10.95;100.00
18533;BME280;9396;51.510;11.934;2023-03-14T00:59:47;98289.34;;;10.96;100.00
18533;BME280;9396;51.510;11.934;2023-03-14T01:02:15;98297.31;;;11.03;100.00
18533;BME280;9396;51.510;11.934;2023-03-14T01:04:41;98306.91;;;11.04;100.00
18533;BME280;9396;51.510;11.934;2023-03-14T01:07:08;98317.97;;;11.07;100.00
18533;BME280;9396;51.510;11.934;2023-03-14T01:09:35;98324.75;;;10.97;100.00
18533;BME280;9396;51.510;11.934;2023-03-14T01:12:02;98315.16;;;10.76;100.00
18533;BME280;9396;51.510;11.934;2023-03-14T01:14:28;98328.22;;;10.84;100.00
18533;BME280;9396;51.510;11.934;2023-03-14T01:16:55;98330.91;;;10.91;100.00
18533;BME280;9396;51.510;11.934;2023-03-14T01:19:27;98328.66;;;10.94;100.00
18533;BME280;9396;51.510;11.934;2023-03-14T01:21:54;98345.84;;;10.85;100.00
18533;BME280;9396;51.510;11.934;2023-03-14T01:24:21;98330.31;;;10.82;100.00
18533;BME280;9396;51.510;11.934;2023-03-14T01:26:47;98331.94;;;10.76;100.00
18533;BME280;9396;51.510;11.934;2023-03-14T01:29:14;98330.47;;;10.80;100.00
18533;BME280;9396;51.510;11.934;2023-03-14T01:31:40;98342.16;;;10.79;100.00
18533;BME280;9396;51.510;11.934;2023-03-14T01:34:07;98333.75;;;10.82;100.00
18533;BME280;9396;51.510;11.934;2023-03-14T01:36:35;98338.25;;;10.95;100.00
18533;BME280;9396;51.510;11.934;2023-03-14T01:39:02;98329.47;;;10.95;100.00
18533;BME280;9396;51.510;11.934;2023-03-14T01:41:31;98340.91;;;10.95;100.00
18533;BME280;9396;51.510;11.934;2023-03-14T01:43:58;98330.47;;;11.00;100.00
18533;BME280;9396;51.510;11.934;2023-03-14T01:46:28;98325.34;;;11.05;100.00
18533;BME280;9396;51.510;11.934;2023-03-14T01:49:02;98319.63;;;11.08;100.00
18533;BME280;9396;51.510;11.934;2023-03-14T01:51:33;98314.31;;;11.02;100.00
18533;BME280;9396;51.510;11.934;2023-03-14T01:54:08;98308.97;;;11.08;100.00
18533;BME280;9396;51.510;11.934;2023-03-14T01:56:37;98312.25;;;11.10;100.00
18533;BME280;9396;51.510;11.934;2023-03-14T01:59:08;98292.38;;;11.13;100.00
18533;BME280;9396;51.510;11.934;2023-03-14T02:01:35;98293.16;;;11.20;100.00
18533;BME280;9396;51.510;11.934;2023-03-14T02:04:05;98289.72;;;11.19;100.00
18533;BME280;9396;51.510;11.934;2023-03-14T02:06:40;98279.69;;;11.21;99.52
18533;BME280;9396;51.510;11.934;2023-03-14T02:09:10;98272.94;;;11.12;99.96
18533;BME280;9396;51.510;11.934;2023-03-14T02:11:36;98276.00;;;11.16;99.51
18533;BME280;9396;51.510;11.934;2023-03-14T02:14:03;98271.28;;;11.18;99.52
18533;BME280;9396;51.510;11.934;2023-03-14T02:16:30;98281.13;;;11.04;99.68
18533;BME280;9396;51.510;11.934;2023-03-14T02:18:57;98267.66;;;10.99;99.79
18533;BME280;9396;51.510;11.934;2023-03-14T02:21:34;98260.53;;;10.87;100.00
18533;BME280;9396;51.510;11.934;2023-03-14T02:24:12;98245.81;;;10.77;100.00
18533;BME280;9396;51.510;11.934;2023-03-14T02:26:44;98232.94;;;10.68;100.00
18533;BME280;9396;51.510;11.934;2023-03-14T02:29:13;98225.38;;;10.71;100.00
18533;BME280;9396;51.510;11.934;2023-03-14T02:31:39;98224.31;;;10.79;100.00
18533;BME280;9396;51.510;11.934;2023-03-14T02:34:06;98225.38;;;10.71;100.00
18533;BME280;9396;51.510;11.934;2023-03-14T02:36:33;98220.25;;;10.70;100.00
18533;BME280;9396;51.510;11.934;2023-03-14T02:39:06;98221.50;;;10.67;100.00
18533;BME280;9396;51.510;11.934;2023-03-14T02:41:34;98209.25;;;10.53;100.00
18533;BME280;9396;51.510;11.934;2023-03-14T02:44:01;98212.09;;;10.58;100.00
18533;BME280;9396;51.510;11.934;2023-03-14T02:46:29;98217.63;;;10.63;99.44
18533;BME280;9396;51.510;11.934;2023-03-14T02:48:58;98211.69;;;10.61;98.56
18533;BME280;9396;51.510;11.934;2023-03-14T02:51:28;98208.81;;;10.69;97.64
18533;BME280;9396;51.510;11.934;2023-03-14T02:53:55;98226.81;;;10.61;97.99
18533;BME280;9396;51.510;11.934;2023-03-14T02:56:22;98225.81;;;10.62;97.81
18533;BME280;9396;51.510;11.934;2023-03-14T02:58:49;98224.38;;;10.59;97.57
18533;BME280;9396;51.510;11.934;2023-03-14T03:01:15;98221.91;;;10.64;97.36
18533;BME280;9396;51.510;11.934;2023-03-14T03:03:43;98203.06;;;10.72;97.04
18533;BME280;9396;51.510;11.934;2023-03-14T03:06:10;98199.81;;;10.70;96.40
18533;BME280;9396;51.510;11.934;2023-03-14T03:08:36;98200.84;;;10.69;96.63
18533;BME280;9396;51.510;11.934;2023-03-14T03:11:04;98209.22;;;10.66;95.97
18533;BME280;9396;51.510;11.934;2023-03-14T03:13:30;98198.38;;;10.61;96.33
18533;BME280;9396;51.510;11.934;2023-03-14T03:15:57;98200.84;;;10.63;96.17
18533;BME280;9396;51.510;11.934;2023-03-14T03:18:23;98215.97;;;10.56;96.45
18533;BME280;9396;51.510;11.934;2023-03-14T03:20:51;98216.19;;;10.61;96.67
18533;BME280;9396;51.510;11.934;2023-03-14T03:23:18;98200.47;;;10.53;96.57
18533;BME280;9396;51.510;11.934;2023-03-14T03:25:48;98208.84;;;10.56;96.60
18533;BME280;9396;51.510;11.934;2023-03-14T03:28:15;98210.47;;;10.57;96.13
18533;BME280;9396;51.510;11.934;2023-03-14T03:30:42;98204.94;;;10.52;96.78
18533;BME280;9396;51.510;11.934;2023-03-14T03:33:10;98202.47;;;10.57;96.44
18533;BME280;9396;51.510;11.934;2023-03-14T03:35:42;98191.03;;;10.63;95.82
18533;BME280;9396;51.510;11.934;2023-03-14T03:38:11;98182.84;;;10.65;95.95
18533;BME280;9396;51.510;11.934;2023-03-14T03:40:38;98175.91;;;10.57;96.51
18533;BME280;9396;51.510;11.934;2023-03-14T03:43:05;98163.03;;;10.54;96.51
18533;BME280;9396;51.510;11.934;2023-03-14T03:45:32;98169.78;;;10.50;96.07
18533;BME280;9396;51.510;11.934;2023-03-14T03:47:58;98180.22;;;10.45;96.83
18533;BME280;9396;51.510;11.934;2023-03-14T03:50:25;98183.50;;;10.47;96.32
18533;BME280;9396;51.510;11.934;2023-03-14T03:52:51;98186.13;;;10.54;96.82
18533;BME280;9396;51.510;11.934;2023-03-14T03:55:19;98182.69;;;10.53;96.37
18533;BME280;9396;51.510;11.934;2023-03-14T03:57:46;98176.94;;;10.56;96.06
18533;BME280;9396;51.510;11.934;2023-03-14T04:00:13;98181.03;;;10.59;96.44
18533;BME280;9396;51.510;11.934;2023-03-14T04:02:40;98181.81;;;10.59;96.08
18533;BME280;9396;51.510;11.934;2023-03-14T04:05:07;98182.66;;;10.60;96.62
18533;BME280;9396;51.510;11.934;2023-03-14T04:07:34;98184.28;;;10.61;95.98
18533;BME280;9396;51.510;11.934;2023-03-14T04:10:00;98172.41;;;10.63;96.17
18533;BME280;9396;51.510;11.934;2023-03-14T04:12:28;98190.19;;;10.63;96.38
18533;BME280;9396;51.510;11.934;2023-03-14T04:14:55;98197.75;;;10.72;95.96
18533;BME280;9396;51.510;11.934;2023-03-14T04:17:22;98193.66;;;10.70;96.07
18533;BME280;9396;51.510;11.934;2023-03-14T04:19:48;98179.16;;;10.72;95.38
18533;BME280;9396;51.510;11.934;2023-03-14T04:22:16;98171.97;;;10.79;95.28
18533;BME280;9396;51.510;11.934;2023-03-14T04:24:43;98162.75;;;10.75;94.45
18533;BME280;9396;51.510;11.934;2023-03-14T04:27:09;98154.19;;;10.73;94.72
18533;BME280;9396;51.510;11.934;2023-03-14T04:29:37;98150.31;;;10.69;94.96
18533;BME280;9396;51.510;11.934;2023-03-14T04:32:04;98144.16;;;10.75;94.77
18533;BME280;9396;51.510;11.934;2023-03-14T04:34:31;98139.00;;;10.80;95.00
18533;BME280;9396;51.510;11.934;2023-03-14T04:36:57;98139.66;;;10.76;95.06
18533;BME280;9396;51.510;11.934;2023-03-14T04:39:24;98135.00;;;10.58;95.10
18533;BME280;9396;51.510;11.934;2023-03-14T04:41:51;98145.41;;;10.66;96.12
18533;BME280;9396;51.510;11.934;2023-03-14T04:44:17;98126.22;;;10.58;95.89
18533;BME280;9396;51.510;11.934;2023-03-14T04:46:45;98130.31;;;10.54;96.15
18533;BME280;9396;51.510;11.934;2023-03-14T04:49:12;98130.56;;;10.46;96.35
18533;BME280;9396;51.510;11.934;2023-03-14T04:51:38;98134.44;;;10.50;96.25
18533;BME280;9396;51.510;11.934;2023-03-14T04:54:06;98130.78;;;10.44;97.03
18533;BME280;9396;51.510;11.934;2023-03-14T04:56:32;98124.19;;;10.53;96.51
18533;BME280;9396;51.510;11.934;2023-03-14T04:58:59;98130.31;;;10.54;96.74
18533;BME280;9396;51.510;11.934;2023-03-14T05:01:25;98130.91;;;10.56;96.10
18533;BME280;9396;51.510;11.934;2023-03-14T05:03:53;98131.94;;;10.61;96.53
18533;BME280;9396;51.510;11.934;2023-03-14T05:06:20;98115.97;;;10.61;96.32
18533;BME280;9396;51.510;11.934;2023-03-14T05:08:46;98115.63;;;10.51;96.21
18533;BME280;9396;51.510;11.934;2023-03-14T05:11:13;98107.84;;;10.50;96.67
18533;BME280;9396;51.510;11.934;2023-03-14T05:13:40;98106.81;;;10.51;97.00
18533;BME280;9396;51.510;11.934;2023-03-14T05:16:08;98095.75;;;10.54;96.19
18533;BME280;9396;51.510;11.934;2023-03-14T05:18:36;98095.56;;;10.55;96.08
18533;BME280;9396;51.510;11.934;2023-03-14T05:21:04;98093.72;;;10.56;96.09
18533;BME280;9396;51.510;11.934;2023-03-14T05:23:31;98094.34;;;10.51;95.91
18533;BME280;9396;51.510;11.934;2023-03-14T05:25:58;98089.50;;;10.35;96.46
18533;BME280;9396;51.510;11.934;2023-03-14T05:28:24;98091.75;;;10.32;97.32
18533;BME280;9396;51.510;11.934;2023-03-14T05:30:51;98081.94;;;10.32;97.03
18533;BME280;9396;51.510;11.934;2023-03-14T05:33:17;98091.56;;;10.20;98.11
18533;BME280;9396;51.510;11.934;2023-03-14T05:35:44;98081.72;;;10.27;97.92
18533;BME280;9396;51.510;11.934;2023-03-14T05:38:12;98078.72;;;10.17;97.76
18533;BME280;9396;51.510;11.934;2023-03-14T05:40:39;98081.75;;;10.21;97.69
18533;BME280;9396;51.510;11.934;2023-03-14T05:43:05;98076.88;;;10.18;98.56
18533;BME280;9396;51.510;11.934;2023-03-14T05:45:33;98082.78;;;10.13;98.71
18533;BME280;9396;51.510;11.934;2023-03-14T05:48:00;98091.16;;;10.23;98.13
18533;BME280;9396;51.510;11.934;2023-03-14T05:50:26;98077.28;;;10.15;97.83
18533;BME280;9396;51.510;11.934;2023-03-14T05:52:53;98086.69;;;10.17;98.22
18533;BME280;9396;51.510;11.934;2023-03-14T05:55:21;98087.06;;;10.21;98.17
18533;BME280;9396;51.510;11.934;2023-03-14T05:57:47;98084.81;;;10.24;98.16
18533;BME280;9396;51.510;11.934;2023-03-14T06:00:15;98074.38;;;10.29;97.95
18533;BME280;9396;51.510;11.934;2023-03-14T06:02:41;98086.03;;;10.28;98.12
18533;BME280;9396;51.510;11.934;2023-03-14T06:05:08;98084.41;;;10.21;98.00
18533;BME280;9396;51.510;11.934;2023-03-14T06:07:35;98080.31;;;10.18;98.61
18533;BME280;9396;51.510;11.934;2023-03-14T06:10:02;98076.63;;;10.26;97.89
18533;BME280;9396;51.510;11.934;2023-03-14T06:12:30;98078.91;;;10.22;98.24
18533;BME280;9396;51.510;11.934;2023-03-14T06:14:56;98080.34;;;10.25;97.84
18533;BME280;9396;51.510;11.934;2023-03-14T06:17:23;98085.63;;;10.31;97.76
18533;BME280;9396;51.510;11.934;2023-03-14T06:19:50;98088.47;;;10.36;97.37
18533;BME280;9396;51.510;11.934;2023-03-14T06:22:16;98084.38;;;10.40;97.24
18533;BME280;9396;51.510;11.934;2023-03-14T06:24:44;98096.00;;;10.46;96.87
18533;BME280;9396;51.510;11.934;2023-03-14T06:27:11;98107.06;;;10.43;96.59
18533;BME280;9396;51.510;11.934;2023-03-14T06:29:39;98111.34;;;10.44;97.13
18533;BME280;9396;51.510;11.934;2023-03-14T06:32:05;98124.19;;;10.47;97.19
18533;BME280;9396;51.510;11.934;2023-03-14T06:34:32;98127.88;;;10.52;96.46
18533;BME280;9396;51.510;11.934;2023-03-14T06:36:58;98140.16;;;10.53;97.06
18533;BME280;9396;51.510;11.934;2023-03-14T06:39:25;98134.84;;;10.47;97.75
18533;BME280;9396;51.510;11.934;2023-03-14T06:41:52;98149.97;;;10.46;97.44
18533;BME280;9396;51.510;11.934;2023-03-14T06:44:18;98146.94;;;10.43;97.65
18533;BME280;9396;51.510;11.934;2023-03-14T06:46:46;98148.94;;;10.47;97.40
18533;BME280;9396;51.510;11.934;2023-03-14T06:49:13;98147.50;;;10.51;97.66
18533;BME280;9396;51.510;11.934;2023-03-14T06:51:39;98159.75;;;10.52;97.57
18533;BME280;9396;51.510;11.934;2023-03-14T06:54:06;98154.63;;;10.57;97.16
18533;BME280;9396;51.510;11.934;2023-03-14T06:56:33;98147.28;;;10.66;96.82
18533;BME280;9396;51.510;11.934;2023-03-14T06:58:59;98151.94;;;10.70;96.84
18533;BME280;9396;51.510;11.934;2023-03-14T07:01:27;98151.50;;;10.80;96.34
18533;BME280;9396;51.510;11.934;2023-03-14T07:03:56;98071.75;;;10.23;96.79
18533;BME280;9396;51.510;11.934;2023-03-14T07:06:23;98145.97;;;10.82;96.92
18533;BME280;9396;51.510;11.934;2023-03-14T07:08:50;98149.84;;;10.86;96.31
18533;BME280;9396;51.510;11.934;2023-03-14T07:11:17;98139.00;;;10.87;95.87
18533;BME280;9396;51.510;11.934;2023-03-14T07:13:43;98140.00;;;10.93;94.83
18533;BME280;9396;51.510;11.934;2023-03-14T07:16:10;98135.28;;;10.95;95.03
18533;BME280;9396;51.510;11.934;2023-03-14T07:18:37;98136.16;;;11.26;94.33
18533;BME280;9396;51.510;11.934;2023-03-14T07:21:05;98091.06;;;11.31;92.33
18533;BME280;9396;51.510;11.934;2023-03-14T07:23:32;98133.63;;;11.69;91.98
18533;BME280;9396;51.510;11.934;2023-03-14T07:25:58;98135.69;;;11.92;91.33
18533;BME280;9396;51.510;11.934;2023-03-14T07:28:25;98126.13;;;11.84;90.53
18533;BME280;9396;51.510;11.934;2023-03-14T07:30:52;98124.38;;;11.71;91.00
18533;BME280;9396;51.510;11.934;2023-03-14T07:33:19;98136.63;;;11.79;91.36
18533;BME280;9396;51.510;11.934;2023-03-14T07:35:46;98134.28;;;11.64;91.52
18533;BME280;9396;51.510;11.934;2023-03-14T07:38:14;98130.59;;;11.59;90.71
18533;BME280;9396;51.510;11.934;2023-03-14T07:40:41;98137.00;;;11.51;91.64
18533;BME280;9396;51.510;11.934;2023-03-14T07:43:07;98140.81;;;11.62;91.90
18533;BME280;9396;51.510;11.934;2023-03-14T07:45:34;98129.53;;;11.73;90.69
18533;BME280;9396;51.510;11.934;2023-03-14T07:48:01;98133.25;;;11.90;90.62
18533;BME280;9396;51.510;11.934;2023-03-14T07:50:27;98126.34;;;12.07;89.96
18533;BME280;9396;51.510;11.934;2023-03-14T07:52:55;98127.19;;;12.26;89.31
18533;BME280;9396;51.510;11.934;2023-03-14T07:55:23;98120.47;;;12.41;88.05
18533;BME280;9396;51.510;11.934;2023-03-14T07:57:50;98117.34;;;12.44;88.43
18533;BME280;9396;51.510;11.934;2023-03-14T08:00:17;98117.94;;;12.46;88.79
18533;BME280;9396;51.510;11.934;2023-03-14T08:02:44;98123.56;;;12.38;90.55
18533;BME280;9396;51.510;11.934;2023-03-14T08:05:10;98112.03;;;12.26;89.35
18533;BME280;9396;51.510;11.934;2023-03-14T08:07:37;98116.41;;;12.39;88.60
18533;BME280;9396;51.510;11.934;2023-03-14T08:10:04;98120.75;;;12.33;88.31
18533;BME280;9396;51.510;11.934;2023-03-14T08:12:33;98111.56;;;12.29;88.35
18533;BME280;9396;51.510;11.934;2023-03-14T08:14:59;98108.38;;;12.21;89.13
18533;BME280;9396;51.510;11.934;2023-03-14T08:17:26;98100.13;;;12.04;88.69
18533;BME280;9396;51.510;11.934;2023-03-14T08:19:53;98111.84;;;12.03;89.87
18533;BME280;9396;51.510;11.934;2023-03-14T08:22:19;98116.72;;;12.06;90.22
18533;BME280;9396;51.510;11.934;2023-03-14T08:24:46;98107.53;;;12.02;89.40
18533;BME280;9396;51.510;11.934;2023-03-14T08:27:12;98110.63;;;11.99;89.79
18533;BME280;9396;51.510;11.934;2023-03-14T08:29:41;98117.16;;;12.03;89.91
18533;BME280;9396;51.510;11.934;2023-03-14T08:32:08;98110.34;;;12.07;89.69
18533;BME280;9396;51.510;11.934;2023-03-14T08:34:35;98110.78;;;12.04;90.45
18533;BME280;9396;51.510;11.934;2023-03-14T08:37:02;98109.09;;;12.10;90.52
18533;BME280;9396;51.510;11.934;2023-03-14T08:39:29;98114.44;;;12.10;89.98
18533;BME280;9396;51.510;11.934;2023-03-14T08:41:56;98103.25;;;12.01;89.86
18533;BME280;9396;51.510;11.934;2023-03-14T08:44:23;98106.06;;;12.06;90.34
18533;BME280;9396;51.510;11.934;2023-03-14T08:46:51;98110.50;;;12.12;90.20
18533;BME280;9396;51.510;11.934;2023-03-14T08:49:17;98108.94;;;12.05;89.67
18533;BME280;9396;51.510;11.934;2023-03-14T08:51:44;98114.69;;;12.02;89.98
18533;BME280;9396;51.510;11.934;2023-03-14T08:54:10;98118.34;;;12.07;90.50
18533;BME280;9396;51.510;11.934;2023-03-14T08:56:37;98112.63;;;12.04;89.51
18533;BME280;9396;51.510;11.934;2023-03-14T08:59:04;98122.50;;;12.03;90.17
18533;BME280;9396;51.510;11.934;2023-03-14T09:01:31;98120.84;;;12.02;90.37
18533;BME280;9396;51.510;11.934;2023-03-14T09:03:59;98120.84;;;12.02;90.39
18533;BME280;9396;51.510;11.934;2023-03-14T09:06:26;98123.25;;;12.10;90.18
18533;BME280;9396;51.510;11.934;2023-03-14T09:08:52;98125.47;;;12.13;90.26
18533;BME280;9396;51.510;11.934;2023-03-14T09:11:19;98131.31;;;12.22;89.65
18533;BME280;9396;51.510;11.934;2023-03-14T09:13:45;98133.84;;;12.17;89.72
18533;BME280;9396;51.510;11.934;2023-03-14T09:16:14;98129.75;;;12.14;90.04
18533;BME280;9396;51.510;11.934;2023-03-14T09:18:40;98132.84;;;12.11;90.64
18533;BME280;9396;51.510;11.934;2023-03-14T09:21:08;98125.03;;;12.16;89.16
18533;BME280;9396;51.510;11.934;2023-03-14T09:23:35;98130.13;;;12.18;89.67
18533;BME280;9396;51.510;11.934;2023-03-14T09:26:02;98130.56;;;12.15;88.61
18533;BME280;9396;51.510;11.934;2023-03-14T09:28:28;98123.63;;;12.14;88.51
18533;BME280;9396;51.510;11.934;2023-03-14T09:30:55;98131.03;;;12.12;90.11
18533;BME280;9396;51.510;11.934;2023-03-14T09:33:22;98138.78;;;12.13;89.44
18533;BME280;9396;51.510;11.934;2023-03-14T09:35:48;98130.19;;;12.11;89.61
18533;BME280;9396;51.510;11.934;2023-03-14T09:38:16;98132.63;;;12.13;90.02
18533;BME280;9396;51.510;11.934;2023-03-14T09:40:46;98135.25;;;12.19;88.50
18533;BME280;9396;51.510;11.934;2023-03-14T09:43:14;98152.72;;;12.15;89.16
18533;BME280;9396;51.510;11.934;2023-03-14T09:45:43;98151.25;;;12.19;89.99
18533;BME280;9396;51.510;11.934;2023-03-14T09:48:15;98142.59;;;12.24;89.81
18533;BME280;9396;51.510;11.934;2023-03-14T09:50:44;98144.19;;;12.25;89.56
18533;BME280;9396;51.510;11.934;2023-03-14T09:53:16;98145.63;;;12.27;90.06
18533;BME280;9396;51.510;11.934;2023-03-14T09:55:45;98145.69;;;12.21;89.73
18533;BME280;9396;51.510;11.934;2023-03-14T09:58:18;98142.38;;;12.25;90.41
18533;BME280;9396;51.510;11.934;2023-03-14T10:00:46;98018.00;;;11.52;89.23
18533;BME280;9396;51.510;11.934;2023-03-14T10:03:26;98141.13;;;12.28;88.83
18533;BME280;9396;51.510;11.934;2023-03-14T10:05:53;98145.34;;;12.35;89.88
18533;BME280;9396;51.510;11.934;2023-03-14T10:08:21;98049.16;;;11.76;90.51
18533;BME280;9396;51.510;11.934;2023-03-14T10:10:49;98152.22;;;12.43;89.64
18533;BME280;9396;51.510;11.934;2023-03-14T10:13:18;98155.28;;;12.46;89.23
18533;BME280;9396;51.510;11.934;2023-03-14T10:15:50;98144.19;;;12.49;89.63
18533;BME280;9396;51.510;11.934;2023-03-14T10:18:17;98153.94;;;12.55;89.34
18533;BME280;9396;51.510;11.934;2023-03-14T10:20:46;98154.53;;;12.57;90.31
18533;BME280;9396;51.510;11.934;2023-03-14T10:23:23;98151.38;;;12.67;90.63
18533;BME280;9396;51.510;11.934;2023-03-14T10:26:05;98152.53;;;12.71;90.16
18533;BME280;9396;51.510;11.934;2023-03-14T10:28:33;98160.91;;;12.74;92.00
18533;BME280;9396;51.510;11.934;2023-03-14T10:31:01;98151.75;;;12.70;90.05
18533;BME280;9396;51.510;11.934;2023-03-14T10:33:29;98149.88;;;12.71;91.50
18533;BME280;9396;51.510;11.934;2023-03-14T10:35:58;98148.63;;;12.73;90.36
18533;BME280;9396;51.510;11.934;2023-03-14T10:38:27;98142.31;;;12.68;89.35
18533;BME280;9396;51.510;11.934;2023-03-14T10:40:55;98138.09;;;12.60;89.19
18533;BME280;9396;51.510;11.934;2023-03-14T10:43:26;98051.13;;;12.05;88.77
18533;BME280;9396;51.510;11.934;2023-03-14T10:45:55;98132.56;;;12.62;88.39
18533;BME280;9396;51.510;11.934;2023-03-14T10:48:28;98127.59;;;12.65;88.41
18533;BME280;9396;51.510;11.934;2023-03-14T10:50:57;98136.97;;;12.68;90.06
18533;BME280;9396;51.510;11.934;2023-03-14T10:53:33;98127.75;;;12.70;89.70
18533;BME280;9396;51.510;11.934;2023-03-14T10:56:02;98148.72;;;12.85;89.13
18533;BME280;9396;51.510;11.934;2023-03-14T10:58:35;98138.75;;;12.92;89.04
18533;BME280;9396;51.510;11.934;2023-03-14T11:01:14;98137.06;;;12.98;88.96
18533;BME280;9396;51.510;11.934;2023-03-14T11:03:48;98149.53;;;13.04;88.49
18533;BME280;9396;51.510;11.934;2023-03-14T11:06:21;98156.03;;;13.08;87.64
18533;BME280;9396;51.510;11.934;2023-03-14T11:08:54;98140.69;;;13.03;87.73
18533;BME280;9396;51.510;11.934;2023-03-14T11:11:27;98148.75;;;12.97;88.10
18533;BME280;9396;51.510;11.934;2023-03-14T11:14:07;98150.16;;;12.99;89.06
18533;BME280;9396;51.510;11.934;2023-03-14T11:16:46;98147.72;;;12.98;88.86
18533;BME280;9396;51.510;11.934;2023-03-14T11:19:29;98149.13;;;13.00;89.01
18533;BME280;9396;51.510;11.934;2023-03-14T11:22:01;98139.44;;;13.06;88.21
18533;BME280;9396;51.510;11.934;2023-03-14T11:24:41;98131.78;;;13.09;89.13
18533;BME280;9396;51.510;11.934;2023-03-14T11:27:17;98139.69;;;13.16;88.62
18533;BME280;9396;51.510;11.934;2023-03-14T11:29:51;98136.44;;;13.14;87.92
18533;BME280;9396;51.510;11.934;2023-03-14T11:32:28;98136.00;;;13.17;88.11
18533;BME280;9396;51.510;11.934;2023-03-14T11:34:59;98145.34;;;13.26;87.59
18533;BME280;9396;51.510;11.934;2023-03-14T11:37:33;98140.13;;;13.31;87.80
18533;BME280;9396;51.510;11.934;2023-03-14T11:40:05;98127.97;;;13.35;87.27
18533;BME280;9396;51.510;11.934;2023-03-14T11:42:35;98120.75;;;13.35;89.26
18533;BME280;9396;51.510;11.934;2023-03-14T11:45:04;98123.19;;;13.37;88.42
18533;BME280;9396;51.510;11.934;2023-03-14T11:47:40;98134.03;;;13.42;88.88
18533;BME280;9396;51.510;11.934;2023-03-14T11:50:14;98120.19;;;13.45;89.65
18533;BME280;9396;51.510;11.934;2023-03-14T11:52:47;98123.22;;;13.48;89.43
18533;BME280;9396;51.510;11.934;2023-03-14T11:55:19;98110.28;;;13.34;89.43
18533;BME280;9396;51.510;11.934;2023-03-14T11:57:48;98102.03;;;13.24;90.21
18533;BME280;9396;51.510;11.934;2023-03-14T12:00:21;98110.94;;;13.18;90.64
18533;BME280;9396;51.510;11.934;2023-03-14T12:02:51;98107.25;;;13.19;90.77
18533;BME280;9396;51.510;11.934;2023-03-14T12:05:34;98095.03;;;13.23;90.89
18533;BME280;9396;51.510;11.934;2023-03-14T12:08:22;98094.28;;;13.34;89.88
18533;BME280;9396;51.510;11.934;2023-03-14T12:10:54;98100.66;;;13.33;89.72
18533;BME280;9396;51.510;11.934;2023-03-14T12:13:22;98108.09;;;13.31;89.65
18533;BME280;9396;51.510;11.934;2023-03-14T12:15:54;98089.22;;;13.44;90.35
18533;BME280;9396;51.510;11.934;2023-03-14T12:18:26;98094.44;;;13.50;89.37
18533;BME280;9396;51.510;11.934;2023-03-14T12:20:56;98097.78;;;13.46;88.28
18533;BME280;9396;51.510;11.934;2023-03-14T12:23:24;97969.34;;;12.53;88.39
18533;BME280;9396;51.510;11.934;2023-03-14T12:26:08;98078.00;;;13.24;88.71
18533;BME280;9396;51.510;11.934;2023-03-14T12:28:42;98076.72;;;13.26;87.92
18533;BME280;9396;51.510;11.934;2023-03-14T12:31:38;98074.75;;;13.22;88.14
18533;BME280;9396;51.510;11.934;2023-03-14T12:34:28;98067.44;;;13.29;88.77
18533;BME280;9396;51.510;11.934;2023-03-14T12:37:06;98047.69;;;13.18;87.99
18533;BME280;9396;51.510;11.934;2023-03-14T12:40:00;98069.88;;;13.19;88.12
18533;BME280;9396;51.510;11.934;2023-03-14T12:42:38;98071.59;;;13.25;87.45
18533;BME280;9396;51.510;11.934;2023-03-14T12:45:15;98080.59;;;13.42;88.08
18533;BME280;9396;51.510;11.934;2023-03-14T12:47:53;98075.88;;;13.55;87.05
18533;BME280;9396;51.510;11.934;2023-03-14T12:50:26;98076.34;;;13.64;86.62
18533;BME280;9396;51.510;11.934;2023-03-14T12:56:19;98079.38;;;13.90;85.46
18533;BME280;9396;51.510;11.934;2023-03-14T12:58:55;98000.72;;;13.52;85.28
18533;BME280;9396;51.510;11.934;2023-03-14T13:01:24;98074.38;;;13.94;84.47
18533;BME280;9396;51.510;11.934;2023-03-14T13:03:54;98072.06;;;13.97;85.58
18533;BME280;9396;51.510;11.934;2023-03-14T13:06:53;98060.44;;;13.92;85.96
18533;BME280;9396;51.510;11.934;2023-03-14T13:09:52;98060.44;;;13.92;86.49